Legend Of The Seas — C6SL5 — position and weather

sailwx.info

Track history (hours):
 
Tides and Currents Weather Stations Pressure Air Temp Water Temp Dewpoint Dewpoint Depression Visibility Wind Speed Wind Dir Waves Ship Positions

Legend Of The Seas

Operator: Royal Caribbean Cruises Ltd

Last reported at 2017-Oct-20 19:22 UTC. Time now 2017-Oct-20 19:58 UTC.
Position N 28°28' W 016°15'.

Type: Passenger vessel. MMSI: 311378000.

Date/timePositionNaut miles runAvg speedWind from/ knotsBaromVisibWave heightAir tempDewpointWater temp
2017-Oct-20 19:22N 28°28' W 016°15'0 0.0
2017-Oct-20 18:55N 28°28' W 016°15'0 0.0
2017-Oct-20 18:25N 28°28' W 016°15'0 0.0
2017-Oct-20 17:55N 28°28' W 016°15'0 0.0
2017-Oct-20 17:22N 28°28' W 016°15'0 0.0
2017-Oct-20 16:55N 28°28' W 016°15'0 0.0
2017-Oct-20 16:25N 28°28' W 016°15'0 0.0
2017-Oct-20 15:52N 28°28' W 016°15'0 0.0
2017-Oct-20 15:28N 28°28' W 016°15'0 0.0
2017-Oct-20 14:55N 28°28' W 016°14'0 0.0
2017-Oct-20 13:58N 28°28' W 016°15'0 0.0
2017-Oct-20 13:25N 28°28' W 016°15'0 0.0
2017-Oct-20 12:55N 28°28' W 016°15'0 0.0
2017-Oct-20 12:28N 28°28' W 016°14'0 0.0
2017-Oct-20 11:58N 28°28' W 016°14'0 0.0
2017-Oct-20 11:28N 28°28' W 016°15'0 0.0
2017-Oct-20 10:58N 28°28' W 016°15'0 0.0
2017-Oct-20 10:28N 28°28' W 016°15'0 0.0
2017-Oct-20 09:49N 28°28' W 016°15'0 0.0
2017-Oct-20 04:58N 28°28' W 016°15'1 1.2
2017-Oct-20 04:26N 28°29' W 016°14'510.5
2017-Oct-20 03:57N 28°28' W 016°08'813.7
2017-Oct-20 03:23N 28°26' W 015°60'513.8
2017-Oct-20 03:00N 28°28' W 015°54'714.6
2017-Oct-20 02:29N 28°34' W 015°48'814.2
2017-Oct-20 01:55N 28°38' W 015°41'714.5
2017-Oct-20 01:28N 28°40' W 015°34'714.4
2017-Oct-20 01:00N 28°41' W 015°26'7214.6
2017-Oct-19 20:05N 28°48' W 014°05'114.7
2017-Oct-19 20:00N 28°48' W 014°03'915.0
2017-Oct-19 19:25N 28°48' W 013°53'615.1
2017-Oct-19 19:00N 28°48' W 013°46'714.7
2017-Oct-19 18:29N 28°49' W 013°38'714.7
2017-Oct-19 18:00N 28°54' W 013°31'4 7.5
2017-Oct-19 17:30N 28°58' W 013°32'0 0.5
2017-Oct-19 16:49N 28°58' W 013°32'0 0.0
2017-Oct-19 16:25N 28°58' W 013°32'0 0.0
2017-Oct-19 15:49N 28°58' W 013°32'0 0.0
2017-Oct-19 15:19N 28°58' W 013°32'0 0.0
2017-Oct-19 14:55N 28°58' W 013°32'0 0.0
2017-Oct-19 14:19N 28°58' W 013°32'0 0.0
2017-Oct-19 13:55N 28°58' W 013°32'0 0.0
2017-Oct-19 13:25N 28°58' W 013°32'0 0.0
2017-Oct-19 12:55N 28°58' W 013°32'0 0.0
2017-Oct-19 12:13N 28°58' W 013°32'0 0.0
2017-Oct-19 11:55N 28°58' W 013°32'0 0.0
2017-Oct-19 11:01N 28°58' W 013°32'0 0.1
2017-Oct-19 10:55N 28°58' W 013°32'0 0.0
2017-Oct-19 10:19N 28°58' W 013°32'0 0.0
2017-Oct-19 09:55N 28°58' W 013°32'0 0.0
2017-Oct-19 09:25N 28°58' W 013°32'0 0.0
2017-Oct-19 08:55N 28°58' W 013°32'0 0.0
2017-Oct-19 08:25N 28°58' W 013°32'0 0.0
2017-Oct-19 07:48N 28°58' W 013°32'1 3.0
2017-Oct-19 07:30N 28°57' W 013°31'510.0
2017-Oct-19 07:00N 28°57' W 013°26'815.2
2017-Oct-19 06:29N 29°01' W 013°17'815.6
2017-Oct-19 06:00N 29°04' W 013°10'715.0
2017-Oct-19 05:30N 29°08' W 013°02'127 3.0
2017-Oct-17 10:29N 30°34' W 014°50'143 3.6
2017-Oct-15 19:20N 29°49' W 017°27'618.8
2017-Oct-15 19:00N 29°43' W 017°28'69 4.4
2017-Oct-15 03:29N 28°41' W 016°52'1017.0
2017-Oct-15 02:56N 28°41' W 016°41'916.9
2017-Oct-15 02:24N 28°43' W 016°31'717.1
2017-Oct-15 02:00N 28°43' W 016°23'918.6
2017-Oct-15 01:30N 28°43' W 016°13'918.5
2017-Oct-15 01:00N 28°43' W 016°03'917.4
2017-Oct-15 00:30N 28°42' W 015°53'918.0
2017-Oct-15 00:00N 28°39' W 015°43'918.3
2017-Oct-14 23:30N 28°33' W 015°35'918.4
2017-Oct-14 23:00N 28°28' W 015°26'918.3
2017-Oct-14 22:30N 28°21' W 015°19'918.2
2017-Oct-14 22:00N 28°14' W 015°13'816.2
2017-Oct-14 21:30N 28°07' W 015°18'713.3
2017-Oct-14 21:00N 28°07' W 015°25'1 1.5
2017-Oct-14 20:22N 28°08' W 015°25'0 0.0
2017-Oct-14 19:55N 28°08' W 015°25'0 0.0
2017-Oct-14 19:25N 28°08' W 015°25'0 0.0
2017-Oct-14 18:55N 28°08' W 015°25'0 0.0
2017-Oct-14 18:25N 28°08' W 015°25'0 0.0
2017-Oct-14 17:55N 28°08' W 015°25'0 0.0
2017-Oct-14 17:28N 28°08' W 015°25'0 0.0
2017-Oct-14 16:58N 28°08' W 015°25'0 0.0
2017-Oct-14 16:28N 28°08' W 015°25'0 0.0
2017-Oct-14 15:43N 28°08' W 015°25'0 0.0
2017-Oct-14 15:28N 28°08' W 015°25'0 0.0
2017-Oct-14 14:58N 28°08' W 015°25'0 0.0
2017-Oct-14 14:28N 28°08' W 015°25'0 0.0
2017-Oct-14 13:58N 28°08' W 015°25'0 0.0
2017-Oct-14 13:28N 28°08' W 015°25'0 0.0
2017-Oct-14 12:58N 28°08' W 015°25'0 0.0
2017-Oct-14 12:28N 28°08' W 015°25'0 0.0
2017-Oct-14 11:58N 28°08' W 015°25'0 0.0
2017-Oct-14 11:28N 28°08' W 015°25'0 0.0
2017-Oct-14 10:58N 28°08' W 015°25'0 0.0
2017-Oct-14 10:19N 28°08' W 015°25'0 0.0
2017-Oct-14 09:46N 28°08' W 015°25'0 0.0
2017-Oct-14 09:22N 28°08' W 015°25'0 0.0
2017-Oct-14 08:52N 28°08' W 015°25'0 0.0
2017-Oct-14 08:22N 28°08' W 015°25'0 0.0
2017-Oct-14 07:52N 28°08' W 015°25'0 0.0
2017-Oct-14 07:22N 28°08' W 015°25'0 0.0
2017-Oct-14 07:00N 28°08' W 015°25'0 0.8
2017-Oct-14 06:30N 28°08' W 015°25'3 6.6
2017-Oct-14 06:00N 28°07' W 015°22'510.9
2017-Oct-14 05:30N 28°10' W 015°17'713.9
2017-Oct-14 05:00N 28°17' W 015°16'611.0
2017-Oct-14 04:30N 28°22' W 015°18'713.1
2017-Oct-14 04:00N 28°27' W 015°23'713.2
2017-Oct-14 03:30N 28°31' W 015°29'612.5
2017-Oct-14 03:00N 28°34' W 015°36'612.3
2017-Oct-14 02:30N 28°33' W 015°42'713.0
2017-Oct-14 02:00N 28°28' W 015°47'612.7
2017-Oct-14 01:30N 28°23' W 015°52'611.1
2017-Oct-14 01:00N 28°20' W 015°57'612.1
2017-Oct-14 00:30N 28°23' W 016°03'612.1
2017-Oct-14 00:00N 28°26' W 016°09'510.3
2017-Oct-13 23:30N 28°29' W 016°14'1 1.2
2017-Oct-13 23:00N 28°28' W 016°14'0 0.0
2017-Oct-13 22:30N 28°28' W 016°14'0 0.0
2017-Oct-13 21:57N 28°28' W 016°14'0 0.0
2017-Oct-13 21:30N 28°28' W 016°14'0 0.0
2017-Oct-13 21:00N 28°28' W 016°14'0 0.0
2017-Oct-13 20:30N 28°28' W 016°14'0 0.0
2017-Oct-13 20:00N 28°28' W 016°14'0 0.0
2017-Oct-13 19:27N 28°28' W 016°14'0 0.0
2017-Oct-13 19:00N 28°28' W 016°14'0 0.0
2017-Oct-13 18:30N 28°28' W 016°14'0 0.0
2017-Oct-13 17:48N 28°28' W 016°14'0 0.0
2017-Oct-13 17:21N 28°28' W 016°14'0 0.0
2017-Oct-13 17:00N 28°28' W 016°14'0 0.0
2017-Oct-13 16:30N 28°28' W 016°14'0 0.0
2017-Oct-13 15:51N 28°28' W 016°14'0 0.0
2017-Oct-13 15:21N 28°28' W 016°14'0 0.0
2017-Oct-13 14:54N 28°28' W 016°14'0 0.0
2017-Oct-13 14:24N 28°28' W 016°14'0 0.0
2017-Oct-13 13:54N 28°28' W 016°14'0 0.0
2017-Oct-13 13:24N 28°28' W 016°14'0 0.0
2017-Oct-13 12:51N 28°28' W 016°14'0 0.0
2017-Oct-13 12:21N 28°28' W 016°14'0 0.0
2017-Oct-13 11:57N 28°28' W 016°14'0 0.0
2017-Oct-13 11:27N 28°28' W 016°14'0 0.0
2017-Oct-13 10:57N 28°28' W 016°14'0 0.0
2017-Oct-13 10:27N 28°28' W 016°14'0 0.0
2017-Oct-13 09:57N 28°28' W 016°14'0 0.0
2017-Oct-13 09:27N 28°28' W 016°14'0 0.0
2017-Oct-13 08:42N 28°28' W 016°14'0 0.0
2017-Oct-13 08:30N 28°28' W 016°14'0 0.0
2017-Oct-13 08:00N 28°28' W 016°14'0 0.0
2017-Oct-13 07:30N 28°28' W 016°14'0 0.0
2017-Oct-13 07:00N 28°28' W 016°14'0 0.0
2017-Oct-13 06:30N 28°28' W 016°14'0 0.0
2017-Oct-13 06:00N 28°28' W 016°14'0 0.0
2017-Oct-13 05:30N 28°28' W 016°14'0 0.0
2017-Oct-13 05:01N 28°28' W 016°14'1 1.5
2017-Oct-13 04:30N 28°29' W 016°14'4 7.0
2017-Oct-13 04:00N 28°28' W 016°10'713.6
2017-Oct-13 03:30N 28°26' W 016°03'713.8
2017-Oct-13 03:01N 28°28' W 015°55'815.0
2017-Oct-13 02:30N 28°33' W 015°49'714.5
2017-Oct-13 02:00N 28°38' W 015°43'714.3
2017-Oct-13 01:30N 28°39' W 015°35'714.4
2017-Oct-13 01:00N 28°40' W 015°27'714.6
2017-Oct-13 00:30N 28°41' W 015°19'815.3
2017-Oct-13 00:00N 28°42' W 015°10'816.2
2017-Oct-12 23:30N 28°43' W 015°01'816.3
2017-Oct-12 23:00N 28°44' W 014°52'816.4
2017-Oct-12 22:30N 28°45' W 014°42'816.1
2017-Oct-12 22:00N 28°46' W 014°33'816.0
2017-Oct-12 21:30N 28°47' W 014°24'815.9
2017-Oct-12 21:00N 28°47' W 014°15'815.4
2017-Oct-12 20:30N 28°48' W 014°06'815.4
2017-Oct-12 20:01N 28°49' W 013°58'816.1
2017-Oct-12 19:30N 28°48' W 013°48'714.3
2017-Oct-12 19:01N 28°46' W 013°41'815.7
2017-Oct-12 18:30N 28°38' W 013°41'815.6
2017-Oct-12 18:00N 28°30' W 013°42'713.5
2017-Oct-12 17:30N 28°29' W 013°50'2 3.2
2017-Oct-12 16:58N 28°30' W 013°51'0 0.0
2017-Oct-12 16:04N 28°30' W 013°51'0 0.0
2017-Oct-12 15:52N 28°30' W 013°51'0 0.0
2017-Oct-12 14:52N 28°30' W 013°51'0 0.0
2017-Oct-12 14:28N 28°30' W 013°51'0 0.0
2017-Oct-12 12:58N 28°30' W 013°51'0 0.0
2017-Oct-12 10:34N 28°30' W 013°51'0 0.0
2017-Oct-12 10:22N 28°30' W 013°51'0 0.0
2017-Oct-12 08:37N 28°30' W 013°51'0 0.0
2017-Oct-12 08:22N 28°30' W 013°51'0 0.0
2017-Oct-12 07:58N 28°30' W 013°51'0 0.0
2017-Oct-12 06:38N 28°30' W 013°51'0 1.6
2017-Oct-12 06:30N 28°29' W 013°51'4 7.4
2017-Oct-12 05:57N 28°28' W 013°47'511.7
2017-Oct-12 05:30N 28°28' W 013°41'611.9
2017-Oct-12 05:00N 28°27' W 013°34'711.5
2017-Oct-12 04:26N 28°24' W 013°28'512.1
2017-Oct-12 04:00N 28°20' W 013°24'611.8
2017-Oct-12 03:30N 28°16' W 013°19'611.2
2017-Oct-12 03:00N 28°14' W 013°13'611.6
2017-Oct-12 02:30N 28°16' W 013°07'611.9
2017-Oct-12 02:00N 28°21' W 013°03'611.8
2017-Oct-12 01:29N 28°26' W 012°59'612.1
2017-Oct-12 01:00N 28°31' W 012°54'611.8
2017-Oct-12 00:29N 28°36' W 012°50'1711.8
2017-Oct-11 23:00N 28°50' W 012°39'20 9.7
2017-Oct-11 21:00N 29°00' W 012°58'810.4
2017-Oct-11 20:14N 28°59' W 013°07'2 9.6
2017-Oct-11 20:00N 28°57' W 013°08'5 9.5
2017-Oct-11 19:30N 28°52' W 013°10'5 9.5
2017-Oct-11 19:00N 28°52' W 013°16'5 9.6
2017-Oct-11 18:30N 28°52' W 013°21'5 9.4
2017-Oct-11 18:00N 28°54' W 013°26'5 9.8
2017-Oct-11 17:30N 28°56' W 013°31'2 4.0
2017-Oct-11 17:00N 28°58' W 013°32'87 5.1
2017-Oct-11 00:00N 27°48' W 014°30'714.7
2017-Oct-10 23:30N 27°44' W 014°37'714.2
2017-Oct-10 23:00N 27°40' W 014°44'713.8
2017-Oct-10 22:30N 27°41' W 014°52'713.9
2017-Oct-10 22:00N 27°43' W 014°59'714.3
2017-Oct-10 21:30N 27°47' W 015°06'713.9
2017-Oct-10 21:00N 27°54' W 015°05'714.0
2017-Oct-10 20:30N 28°01' W 015°03'714.0
2017-Oct-10 20:00N 28°07' W 014°60'714.2
2017-Oct-10 19:30N 28°14' W 014°57'  
Track history (hours):
 
Tides and Currents Weather Stations Pressure Air Temp Water Temp Dewpoint Dewpoint Depression Visibility Wind Speed Wind Dir Waves Ship Positions

Legend Of The Seas

Operator: Royal Caribbean Cruises Ltd

Last reported at 2017-Oct-20 19:22 UTC. Time now 2017-Oct-20 19:58 UTC.
Position N 28°28' W 016°15'.

Type: Passenger vessel. MMSI: 311378000.

Date/timePositionNaut miles runAvg speedWind from/ knotsBaromVisibWave heightAir tempDewpointWater temp
2017-Oct-20 19:22N 28°28' W 016°15'0 0.0
2017-Oct-20 18:55N 28°28' W 016°15'0 0.0
2017-Oct-20 18:25N 28°28' W 016°15'0 0.0
2017-Oct-20 17:55N 28°28' W 016°15'0 0.0
2017-Oct-20 17:22N 28°28' W 016°15'0 0.0
2017-Oct-20 16:55N 28°28' W 016°15'0 0.0
2017-Oct-20 16:25N 28°28' W 016°15'0 0.0
2017-Oct-20 15:52N 28°28' W 016°15'0 0.0
2017-Oct-20 15:28N 28°28' W 016°15'0 0.0
2017-Oct-20 14:55N 28°28' W 016°14'0 0.0
2017-Oct-20 13:58N 28°28' W 016°15'0 0.0
2017-Oct-20 13:25N 28°28' W 016°15'0 0.0
2017-Oct-20 12:55N 28°28' W 016°15'0 0.0
2017-Oct-20 12:28N 28°28' W 016°14'0 0.0
2017-Oct-20 11:58N 28°28' W 016°14'0 0.0
2017-Oct-20 11:28N 28°28' W 016°15'0 0.0
2017-Oct-20 10:58N 28°28' W 016°15'0 0.0
2017-Oct-20 10:28N 28°28' W 016°15'0 0.0
2017-Oct-20 09:49N 28°28' W 016°15'0 0.0
2017-Oct-20 04:58N 28°28' W 016°15'1 1.2
2017-Oct-20 04:26N 28°29' W 016°14'510.5
2017-Oct-20 03:57N 28°28' W 016°08'813.7
2017-Oct-20 03:23N 28°26' W 015°60'513.8
2017-Oct-20 03:00N 28°28' W 015°54'714.6
2017-Oct-20 02:29N 28°34' W 015°48'814.2
2017-Oct-20 01:55N 28°38' W 015°41'714.5
2017-Oct-20 01:28N 28°40' W 015°34'714.4
2017-Oct-20 01:00N 28°41' W 015°26'7214.6
2017-Oct-19 20:05N 28°48' W 014°05'114.7
2017-Oct-19 20:00N 28°48' W 014°03'915.0
2017-Oct-19 19:25N 28°48' W 013°53'615.1
2017-Oct-19 19:00N 28°48' W 013°46'714.7
2017-Oct-19 18:29N 28°49' W 013°38'714.7
2017-Oct-19 18:00N 28°54' W 013°31'4 7.5
2017-Oct-19 17:30N 28°58' W 013°32'0 0.5
2017-Oct-19 16:49N 28°58' W 013°32'0 0.0
2017-Oct-19 16:25N 28°58' W 013°32'0 0.0
2017-Oct-19 15:49N 28°58' W 013°32'0 0.0
2017-Oct-19 15:19N 28°58' W 013°32'0 0.0
2017-Oct-19 14:55N 28°58' W 013°32'0 0.0
2017-Oct-19 14:19N 28°58' W 013°32'0 0.0
2017-Oct-19 13:55N 28°58' W 013°32'0 0.0
2017-Oct-19 13:25N 28°58' W 013°32'0 0.0
2017-Oct-19 12:55N 28°58' W 013°32'0 0.0
2017-Oct-19 12:13N 28°58' W 013°32'0 0.0
2017-Oct-19 11:55N 28°58' W 013°32'0 0.0
2017-Oct-19 11:01N 28°58' W 013°32'0 0.1
2017-Oct-19 10:55N 28°58' W 013°32'0 0.0
2017-Oct-19 10:19N 28°58' W 013°32'0 0.0
2017-Oct-19 09:55N 28°58' W 013°32'0 0.0
2017-Oct-19 09:25N 28°58' W 013°32'0 0.0
2017-Oct-19 08:55N 28°58' W 013°32'0 0.0
2017-Oct-19 08:25N 28°58' W 013°32'0 0.0
2017-Oct-19 07:48N 28°58' W 013°32'1 3.0
2017-Oct-19 07:30N 28°57' W 013°31'510.0
2017-Oct-19 07:00N 28°57' W 013°26'815.2
2017-Oct-19 06:29N 29°01' W 013°17'815.6
2017-Oct-19 06:00N 29°04' W 013°10'715.0
2017-Oct-19 05:30N 29°08' W 013°02'127 3.0
2017-Oct-17 10:29N 30°34' W 014°50'143 3.6
2017-Oct-15 19:20N 29°49' W 017°27'618.8
2017-Oct-15 19:00N 29°43' W 017°28'69 4.4
2017-Oct-15 03:29N 28°41' W 016°52'1017.0
2017-Oct-15 02:56N 28°41' W 016°41'916.9
2017-Oct-15 02:24N 28°43' W 016°31'717.1
2017-Oct-15 02:00N 28°43' W 016°23'918.6
2017-Oct-15 01:30N 28°43' W 016°13'918.5
2017-Oct-15 01:00N 28°43' W 016°03'917.4
2017-Oct-15 00:30N 28°42' W 015°53'918.0
2017-Oct-15 00:00N 28°39' W 015°43'918.3
2017-Oct-14 23:30N 28°33' W 015°35'918.4
2017-Oct-14 23:00N 28°28' W 015°26'918.3
2017-Oct-14 22:30N 28°21' W 015°19'918.2
2017-Oct-14 22:00N 28°14' W 015°13'816.2
2017-Oct-14 21:30N 28°07' W 015°18'713.3
2017-Oct-14 21:00N 28°07' W 015°25'1 1.5
2017-Oct-14 20:22N 28°08' W 015°25'0 0.0
2017-Oct-14 19:55N 28°08' W 015°25'0 0.0
2017-Oct-14 19:25N 28°08' W 015°25'0 0.0
2017-Oct-14 18:55N 28°08' W 015°25'0 0.0
2017-Oct-14 18:25N 28°08' W 015°25'0 0.0
2017-Oct-14 17:55N 28°08' W 015°25'0 0.0
2017-Oct-14 17:28N 28°08' W 015°25'0 0.0
2017-Oct-14 16:58N 28°08' W 015°25'0 0.0
2017-Oct-14 16:28N 28°08' W 015°25'0 0.0
2017-Oct-14 15:43N 28°08' W 015°25'0 0.0
2017-Oct-14 15:28N 28°08' W 015°25'0 0.0
2017-Oct-14 14:58N 28°08' W 015°25'0 0.0
2017-Oct-14 14:28N 28°08' W 015°25'0 0.0
2017-Oct-14 13:58N 28°08' W 015°25'0 0.0
2017-Oct-14 13:28N 28°08' W 015°25'0 0.0
2017-Oct-14 12:58N 28°08' W 015°25'0 0.0
2017-Oct-14 12:28N 28°08' W 015°25'0 0.0
2017-Oct-14 11:58N 28°08' W 015°25'0 0.0
2017-Oct-14 11:28N 28°08' W 015°25'0 0.0
2017-Oct-14 10:58N 28°08' W 015°25'0 0.0
2017-Oct-14 10:19N 28°08' W 015°25'0 0.0
2017-Oct-14 09:46N 28°08' W 015°25'0 0.0
2017-Oct-14 09:22N 28°08' W 015°25'0 0.0
2017-Oct-14 08:52N 28°08' W 015°25'0 0.0
2017-Oct-14 08:22N 28°08' W 015°25'0 0.0
2017-Oct-14 07:52N 28°08' W 015°25'0 0.0
2017-Oct-14 07:22N 28°08' W 015°25'0 0.0
2017-Oct-14 07:00N 28°08' W 015°25'0 0.8
2017-Oct-14 06:30N 28°08' W 015°25'3 6.6
2017-Oct-14 06:00N 28°07' W 015°22'510.9
2017-Oct-14 05:30N 28°10' W 015°17'713.9
2017-Oct-14 05:00N 28°17' W 015°16'611.0
2017-Oct-14 04:30N 28°22' W 015°18'713.1
2017-Oct-14 04:00N 28°27' W 015°23'713.2
2017-Oct-14 03:30N 28°31' W 015°29'612.5
2017-Oct-14 03:00N 28°34' W 015°36'612.3
2017-Oct-14 02:30N 28°33' W 015°42'713.0
2017-Oct-14 02:00N 28°28' W 015°47'612.7
2017-Oct-14 01:30N 28°23' W 015°52'611.1
2017-Oct-14 01:00N 28°20' W 015°57'612.1
2017-Oct-14 00:30N 28°23' W 016°03'612.1
2017-Oct-14 00:00N 28°26' W 016°09'510.3
2017-Oct-13 23:30N 28°29' W 016°14'1 1.2
2017-Oct-13 23:00N 28°28' W 016°14'0 0.0
2017-Oct-13 22:30N 28°28' W 016°14'0 0.0
2017-Oct-13 21:57N 28°28' W 016°14'0 0.0
2017-Oct-13 21:30N 28°28' W 016°14'0 0.0
2017-Oct-13 21:00N 28°28' W 016°14'0 0.0
2017-Oct-13 20:30N 28°28' W 016°14'0 0.0
2017-Oct-13 20:00N 28°28' W 016°14'0 0.0
2017-Oct-13 19:27N 28°28' W 016°14'0 0.0
2017-Oct-13 19:00N 28°28' W 016°14'0 0.0
2017-Oct-13 18:30N 28°28' W 016°14'0 0.0
2017-Oct-13 17:48N 28°28' W 016°14'0 0.0
2017-Oct-13 17:21N 28°28' W 016°14'0 0.0
2017-Oct-13 17:00N 28°28' W 016°14'0 0.0
2017-Oct-13 16:30N 28°28' W 016°14'0 0.0
2017-Oct-13 15:51N 28°28' W 016°14'0 0.0
2017-Oct-13 15:21N 28°28' W 016°14'0 0.0
2017-Oct-13 14:54N 28°28' W 016°14'0 0.0
2017-Oct-13 14:24N 28°28' W 016°14'0 0.0
2017-Oct-13 13:54N 28°28' W 016°14'0 0.0
2017-Oct-13 13:24N 28°28' W 016°14'0 0.0
2017-Oct-13 12:51N 28°28' W 016°14'0 0.0
2017-Oct-13 12:21N 28°28' W 016°14'0 0.0
2017-Oct-13 11:57N 28°28' W 016°14'0 0.0
2017-Oct-13 11:27N 28°28' W 016°14'0 0.0
2017-Oct-13 10:57N 28°28' W 016°14'0 0.0
2017-Oct-13 10:27N 28°28' W 016°14'0 0.0
2017-Oct-13 09:57N 28°28' W 016°14'0 0.0
2017-Oct-13 09:27N 28°28' W 016°14'0 0.0
2017-Oct-13 08:42N 28°28' W 016°14'0 0.0
2017-Oct-13 08:30N 28°28' W 016°14'0 0.0
2017-Oct-13 08:00N 28°28' W 016°14'0 0.0
2017-Oct-13 07:30N 28°28' W 016°14'0 0.0
2017-Oct-13 07:00N 28°28' W 016°14'0 0.0
2017-Oct-13 06:30N 28°28' W 016°14'0 0.0
2017-Oct-13 06:00N 28°28' W 016°14'0 0.0
2017-Oct-13 05:30N 28°28' W 016°14'0 0.0
2017-Oct-13 05:01N 28°28' W 016°14'1 1.5
2017-Oct-13 04:30N 28°29' W 016°14'4 7.0
2017-Oct-13 04:00N 28°28' W 016°10'713.6
2017-Oct-13 03:30N 28°26' W 016°03'713.8
2017-Oct-13 03:01N 28°28' W 015°55'815.0
2017-Oct-13 02:30N 28°33' W 015°49'714.5
2017-Oct-13 02:00N 28°38' W 015°43'714.3
2017-Oct-13 01:30N 28°39' W 015°35'714.4
2017-Oct-13 01:00N 28°40' W 015°27'714.6
2017-Oct-13 00:30N 28°41' W 015°19'815.3
2017-Oct-13 00:00N 28°42' W 015°10'816.2
2017-Oct-12 23:30N 28°43' W 015°01'816.3
2017-Oct-12 23:00N 28°44' W 014°52'816.4
2017-Oct-12 22:30N 28°45' W 014°42'816.1
2017-Oct-12 22:00N 28°46' W 014°33'816.0
2017-Oct-12 21:30N 28°47' W 014°24'815.9
2017-Oct-12 21:00N 28°47' W 014°15'815.4
2017-Oct-12 20:30N 28°48' W 014°06'815.4
2017-Oct-12 20:01N 28°49' W 013°58'816.1
2017-Oct-12 19:30N 28°48' W 013°48'714.3
2017-Oct-12 19:01N 28°46' W 013°41'815.7
2017-Oct-12 18:30N 28°38' W 013°41'815.6
2017-Oct-12 18:00N 28°30' W 013°42'713.5
2017-Oct-12 17:30N 28°29' W 013°50'2 3.2
2017-Oct-12 16:58N 28°30' W 013°51'0 0.0
2017-Oct-12 16:04N 28°30' W 013°51'0 0.0
2017-Oct-12 15:52N 28°30' W 013°51'0 0.0
2017-Oct-12 14:52N 28°30' W 013°51'0 0.0
2017-Oct-12 14:28N 28°30' W 013°51'0 0.0
2017-Oct-12 12:58N 28°30' W 013°51'0 0.0
2017-Oct-12 10:34N 28°30' W 013°51'0 0.0
2017-Oct-12 10:22N 28°30' W 013°51'0 0.0
2017-Oct-12 08:37N 28°30' W 013°51'0 0.0
2017-Oct-12 08:22N 28°30' W 013°51'0 0.0
2017-Oct-12 07:58N 28°30' W 013°51'0 0.0
2017-Oct-12 06:38N 28°30' W 013°51'0 1.6
2017-Oct-12 06:30N 28°29' W 013°51'4 7.4
2017-Oct-12 05:57N 28°28' W 013°47'511.7
2017-Oct-12 05:30N 28°28' W 013°41'611.9
2017-Oct-12 05:00N 28°27' W 013°34'711.5
2017-Oct-12 04:26N 28°24' W 013°28'512.1
2017-Oct-12 04:00N 28°20' W 013°24'611.8
2017-Oct-12 03:30N 28°16' W 013°19'611.2
2017-Oct-12 03:00N 28°14' W 013°13'611.6
2017-Oct-12 02:30N 28°16' W 013°07'611.9
2017-Oct-12 02:00N 28°21' W 013°03'611.8
2017-Oct-12 01:29N 28°26' W 012°59'612.1
2017-Oct-12 01:00N 28°31' W 012°54'611.8
2017-Oct-12 00:29N 28°36' W 012°50'1711.8
2017-Oct-11 23:00N 28°50' W 012°39'20 9.7
2017-Oct-11 21:00N 29°00' W 012°58'810.4
2017-Oct-11 20:14N 28°59' W 013°07'2 9.6
2017-Oct-11 20:00N 28°57' W 013°08'5 9.5
2017-Oct-11 19:30N 28°52' W 013°10'5 9.5
2017-Oct-11 19:00N 28°52' W 013°16'5 9.6
2017-Oct-11 18:30N 28°52' W 013°21'5 9.4
2017-Oct-11 18:00N 28°54' W 013°26'5 9.8
2017-Oct-11 17:30N 28°56' W 013°31'2 4.0
2017-Oct-11 17:00N 28°58' W 013°32'87 5.1
2017-Oct-11 00:00N 27°48' W 014°30'714.7
2017-Oct-10 23:30N 27°44' W 014°37'714.2
2017-Oct-10 23:00N 27°40' W 014°44'713.8
2017-Oct-10 22:30N 27°41' W 014°52'713.9
2017-Oct-10 22:00N 27°43' W 014°59'714.3
2017-Oct-10 21:30N 27°47' W 015°06'713.9
2017-Oct-10 21:00N 27°54' W 015°05'714.0
2017-Oct-10 20:30N 28°01' W 015°03'714.0
2017-Oct-10 20:00N 28°07' W 014°60'714.2
2017-Oct-10 19:30N 28°14' W 014°57'  

Dump ship's entire track history